Aérodrome :
LOGIN :

S'inscrire | Disclaimer

   EN    FR    IT 

 










Légende :    VFR   VFR Marginal   IFR   IFR Intensif   IFR Très Intensif
Visi : 
Plafond : 
>= 8 km
>= 3000ft
5 à 8 km
1000 à 3000 ft
1500m à 5 km
500 à 1000 ft
800 à 1500m
200 à 500 ft
< 800m
< 200 ft
Symboles :   Orages  Brouillard  Fortes neiges  Fortes précipitations  Vent > 20 kt
SIGMETs :   Divers  Orages  Givrage  Turbulence  Onde Orograph.  Cendres Volcan.







- Altitude de l'aérodrome : 33 ft
- Code IATA : MHZ


EGUN - RAF Mildenhall

DERNIER METAR :
  • 230716Z AUTO 23015G24KT 9999 BKN025 12/12 A2918 RMK AO2 BKN V SCT CIG 024 RWY11 SLP884 $

METARs EXPIRÉS :
  • 230656Z AUTO 22018G26KT 9999 CLR 12/12 A2916 RMK AO2 PK WND 22027/29 SLP878 T01240124 $
  • 230631Z AUTO 22020G27KT 9999 SCT022 BKN060 13/13 A2914 RMK AO2 SLP871 $
  • 230606Z AUTO 23016KT 9999 BKN022 BKN029 13/13 A2912 RMK AO2 SLP864 $
  • 230531Z AUTO 21017G22KT 9999 SCT036 SCT045 BKN070 13/13 A2910 RMK AO2 SLP857 $
  • 230456Z AUTO 21016KT 9999 SCT034 BKN046 OVC070 13/13 A2908 RMK AO2 PK WND 19028/08 RAE01 SLP851 P0000 T01310131 $
  • 230446Z AUTO 20015KT 9999 FEW021 BKN033 BKN041 BKN055 OVC065 13/13 A2908 RMK AO2 RAE01 SLP851 $
  • 230431Z AUTO 19012G18KT 9999 FEW021 SCT036 OVC060 13/13 A2908 RMK AO2 RAE01 SLP851 $

TAF AMD TAF EGUN
Valide du 23 à 06h jusqu'au 24 à 10h UTC


230617Z 2306/2410 20010G20KT 9999 BKN020 OVC040 520004 QNH2905INS
TEMPO 2306/2309 23015G25KT 8000 -RA
BECMG 2313/2314 25015G35KT 9999 SCT040 QNH2928INS
BECMG 2317/2318 24015G25KT 9999 BKN030 QNH2946INS
BECMG 2320/2321 24010G15KT 9999 OVC015 QNH2965INS TX16/2318Z TN07/2404Z LAST NO AMDS AFT 2306 NEXT 2606
Pas de NOTAMs connus pour ce terrain.
1 SIGMET publié pour la FIR London (EGTT) :
 
Turbulence forte
EGTT SIGMET 02 VALID 230600/231000 EGRR
EGTT LONDON FIR SEV TURB FCST E OF LINE N5000 W00015 - N5500 E00258 SFC/FL060 MOV E 20KT WKN=



MET'MAP, la Météo Aéronautique d'un coup d'oeil ! - Copyright ORBIFLY Décembre 2007 - Disclaimer

ORBIFLY MET'MAP TEAM :

Programmation & Développement : Alexandra Zaïnal
Conception & Développement : Baudouin d'Aumeries
Co-Programmation & Développement : Marc-Olivier Méhu
Soutien technique & logistique : Manuel Goepfert

Contact : metmap@orbifly.com




SOURCES & CREDITS :

   NOAA